Terminal Aerodrome Forecast
Issued by NWS

Home | Current Version | Previous Version | Text Only | Print | Product List | Glossary On
Versions: 1 2 3 4 5 6 7 8 9 10 11 12 13 14 15 16 17
000
FTUS43 KAPX 191100
TAFMBL
TAF
KMBL 191120Z 1912/2012 10006KT P6SM SKC
     FM191500 16009KT P6SM BKN250
     FM191700 17011G20KT P6SM BKN250
     FM192000 17013G24KT P6SM BKN250
     FM200100 17013KT P6SM BKN150 WS007/18030KT
      AMD LTD TO CLD VIS AND WIND=

USA.gov is the U.S. government's official web portal to all federal, state and local government web resources and services.